sensor_id;sensor_type;location;lat;lon;timestamp;P1;durP1;ratioP1;P2;durP2;ratioP2
10452;SDS011;5274;51.992;8.518;2023-12-29T00:01:17;5.35;;;4.97;;
10452;SDS011;5274;51.992;8.518;2023-12-29T00:03:43;9.32;;;6.18;;
10452;SDS011;5274;51.992;8.518;2023-12-29T00:06:09;7.53;;;5.22;;
10452;SDS011;5274;51.992;8.518;2023-12-29T00:08:38;5.78;;;5.32;;
10452;SDS011;5274;51.992;8.518;2023-12-29T00:11:04;5.70;;;5.10;;
10452;SDS011;5274;51.992;8.518;2023-12-29T00:13:30;7.57;;;5.30;;
10452;SDS011;5274;51.992;8.518;2023-12-29T00:15:56;5.88;;;5.32;;
10452;SDS011;5274;51.992;8.518;2023-12-29T00:18:22;5.55;;;5.05;;
10452;SDS011;5274;51.992;8.518;2023-12-29T00:20:49;6.10;;;4.90;;
10452;SDS011;5274;51.992;8.518;2023-12-29T00:23:15;7.07;;;5.13;;
10452;SDS011;5274;51.992;8.518;2023-12-29T00:25:41;9.18;;;5.38;;
10452;SDS011;5274;51.992;8.518;2023-12-29T00:28:07;6.13;;;5.55;;
10452;SDS011;5274;51.992;8.518;2023-12-29T00:30:33;6.75;;;5.05;;
10452;SDS011;5274;51.992;8.518;2023-12-29T00:32:59;6.15;;;5.55;;
10452;SDS011;5274;51.992;8.518;2023-12-29T00:35:25;6.03;;;5.32;;
10452;SDS011;5274;51.992;8.518;2023-12-29T00:37:51;5.80;;;5.28;;
10452;SDS011;5274;51.992;8.518;2023-12-29T00:40:17;5.80;;;5.25;;
10452;SDS011;5274;51.992;8.518;2023-12-29T00:42:43;6.40;;;5.22;;
10452;SDS011;5274;51.992;8.518;2023-12-29T00:45:09;5.35;;;4.85;;
10452;SDS011;5274;51.992;8.518;2023-12-29T00:47:35;6.30;;;5.35;;
10452;SDS011;5274;51.992;8.518;2023-12-29T00:50:01;9.23;;;5.20;;
10452;SDS011;5274;51.992;8.518;2023-12-29T00:52:27;5.68;;;5.15;;
10452;SDS011;5274;51.992;8.518;2023-12-29T00:54:53;6.97;;;5.00;;
10452;SDS011;5274;51.992;8.518;2023-12-29T00:57:19;5.88;;;4.80;;
10452;SDS011;5274;51.992;8.518;2023-12-29T00:59:46;4.68;;;4.28;;
10452;SDS011;5274;51.992;8.518;2023-12-29T01:02:12;8.10;;;4.88;;
10452;SDS011;5274;51.992;8.518;2023-12-29T01:04:38;8.25;;;5.63;;
10452;SDS011;5274;51.992;8.518;2023-12-29T01:07:04;5.95;;;5.15;;
10452;SDS011;5274;51.992;8.518;2023-12-29T01:09:30;7.32;;;5.13;;
10452;SDS011;5274;51.992;8.518;2023-12-29T01:11:56;5.93;;;5.30;;
10452;SDS011;5274;51.992;8.518;2023-12-29T01:14:22;8.15;;;5.10;;
10452;SDS011;5274;51.992;8.518;2023-12-29T01:16:48;6.00;;;4.97;;
10452;SDS011;5274;51.992;8.518;2023-12-29T01:19:14;8.02;;;4.93;;
10452;SDS011;5274;51.992;8.518;2023-12-29T01:21:40;8.73;;;5.28;;
10452;SDS011;5274;51.992;8.518;2023-12-29T01:24:06;9.27;;;5.38;;
10452;SDS011;5274;51.992;8.518;2023-12-29T01:26:36;5.30;;;4.93;;
10452;SDS011;5274;51.992;8.518;2023-12-29T01:29:02;5.75;;;5.10;;
10452;SDS011;5274;51.992;8.518;2023-12-29T01:31:29;5.80;;;5.22;;
10452;SDS011;5274;51.992;8.518;2023-12-29T01:33:55;6.57;;;4.75;;
10452;SDS011;5274;51.992;8.518;2023-12-29T01:36:21;8.25;;;4.68;;
10452;SDS011;5274;51.992;8.518;2023-12-29T01:38:47;8.15;;;4.85;;
10452;SDS011;5274;51.992;8.518;2023-12-29T01:41:13;6.28;;;4.70;;
10452;SDS011;5274;51.992;8.518;2023-12-29T01:46:28;6.63;;;5.00;;
10452;SDS011;5274;51.992;8.518;2023-12-29T01:48:54;5.85;;;5.30;;
10452;SDS011;5274;51.992;8.518;2023-12-29T01:51:20;5.10;;;4.72;;
10452;SDS011;5274;51.992;8.518;2023-12-29T01:53:47;5.63;;;5.10;;
10452;SDS011;5274;51.992;8.518;2023-12-29T01:56:13;5.60;;;4.95;;
10452;SDS011;5274;51.992;8.518;2023-12-29T01:58:39;8.05;;;5.50;;
10452;SDS011;5274;51.992;8.518;2023-12-29T02:01:05;5.75;;;5.10;;
10452;SDS011;5274;51.992;8.518;2023-12-29T02:03:32;5.85;;;5.25;;
10452;SDS011;5274;51.992;8.518;2023-12-29T02:05:58;8.27;;;5.30;;
10452;SDS011;5274;51.992;8.518;2023-12-29T02:08:25;5.75;;;4.97;;
10452;SDS011;5274;51.992;8.518;2023-12-29T02:10:51;6.32;;;5.00;;
10452;SDS011;5274;51.992;8.518;2023-12-29T02:13:17;6.40;;;5.47;;
10452;SDS011;5274;51.992;8.518;2023-12-29T02:15:42;5.32;;;4.88;;
10452;SDS011;5274;51.992;8.518;2023-12-29T02:18:10;5.68;;;5.18;;
10452;SDS011;5274;51.992;8.518;2023-12-29T02:20:40;6.57;;;5.22;;
10452;SDS011;5274;51.992;8.518;2023-12-29T02:23:06;9.23;;;5.20;;
10452;SDS011;5274;51.992;8.518;2023-12-29T02:25:32;5.57;;;5.07;;
10452;SDS011;5274;51.992;8.518;2023-12-29T02:28:10;7.65;;;5.15;;
10452;SDS011;5274;51.992;8.518;2023-12-29T02:30:48;7.97;;;5.00;;
10452;SDS011;5274;51.992;8.518;2023-12-29T02:33:16;5.18;;;4.85;;
10452;SDS011;5274;51.992;8.518;2023-12-29T02:35:44;7.90;;;5.65;;
10452;SDS011;5274;51.992;8.518;2023-12-29T02:38:11;5.72;;;5.07;;
10452;SDS011;5274;51.992;8.518;2023-12-29T02:40:37;6.13;;;5.00;;
10452;SDS011;5274;51.992;8.518;2023-12-29T02:43:03;6.75;;;5.00;;
10452;SDS011;5274;51.992;8.518;2023-12-29T02:45:29;5.30;;;4.90;;
10452;SDS011;5274;51.992;8.518;2023-12-29T02:47:55;6.65;;;6.03;;
10452;SDS011;5274;51.992;8.518;2023-12-29T02:50:21;7.57;;;6.90;;
10452;SDS011;5274;51.992;8.518;2023-12-29T02:52:47;8.65;;;7.90;;
10452;SDS011;5274;51.992;8.518;2023-12-29T02:55:13;9.55;;;8.45;;
10452;SDS011;5274;51.992;8.518;2023-12-29T02:57:39;9.57;;;8.65;;
10452;SDS011;5274;51.992;8.518;2023-12-29T03:00:05;10.23;;;9.27;;
10452;SDS011;5274;51.992;8.518;2023-12-29T03:02:31;9.00;;;8.15;;
10452;SDS011;5274;51.992;8.518;2023-12-29T03:04:58;8.35;;;7.68;;
10452;SDS011;5274;51.992;8.518;2023-12-29T03:07:23;8.90;;;7.80;;
10452;SDS011;5274;51.992;8.518;2023-12-29T03:09:49;8.40;;;7.80;;
10452;SDS011;5274;51.992;8.518;2023-12-29T03:12:15;7.30;;;6.65;;
10452;SDS011;5274;51.992;8.518;2023-12-29T03:14:41;6.53;;;6.03;;
10452;SDS011;5274;51.992;8.518;2023-12-29T03:17:07;6.70;;;6.20;;
10452;SDS011;5274;51.992;8.518;2023-12-29T03:19:33;6.43;;;5.93;;
10452;SDS011;5274;51.992;8.518;2023-12-29T03:21:59;9.20;;;6.07;;
10452;SDS011;5274;51.992;8.518;2023-12-29T03:24:25;9.60;;;6.63;;
10452;SDS011;5274;51.992;8.518;2023-12-29T03:26:51;7.28;;;6.00;;
10452;SDS011;5274;51.992;8.518;2023-12-29T03:29:17;7.13;;;6.00;;
10452;SDS011;5274;51.992;8.518;2023-12-29T03:31:43;8.20;;;6.05;;
10452;SDS011;5274;51.992;8.518;2023-12-29T03:34:09;6.75;;;5.68;;
10452;SDS011;5274;51.992;8.518;2023-12-29T03:36:35;9.85;;;5.65;;
10452;SDS011;5274;51.992;8.518;2023-12-29T03:39:01;6.38;;;5.38;;
10452;SDS011;5274;51.992;8.518;2023-12-29T03:41:27;6.53;;;5.68;;
10452;SDS011;5274;51.992;8.518;2023-12-29T03:43:53;5.82;;;5.35;;
10452;SDS011;5274;51.992;8.518;2023-12-29T03:46:21;5.45;;;5.15;;
10452;SDS011;5274;51.992;8.518;2023-12-29T03:48:47;7.97;;;5.63;;
10452;SDS011;5274;51.992;8.518;2023-12-29T03:51:15;6.22;;;5.63;;
10452;SDS011;5274;51.992;8.518;2023-12-29T03:53:41;5.72;;;5.10;;
10452;SDS011;5274;51.992;8.518;2023-12-29T03:56:07;6.68;;;5.80;;
10452;SDS011;5274;51.992;8.518;2023-12-29T03:58:34;8.10;;;5.82;;
10452;SDS011;5274;51.992;8.518;2023-12-29T04:01:00;11.23;;;5.78;;
10452;SDS011;5274;51.992;8.518;2023-12-29T04:03:26;6.00;;;5.50;;
10452;SDS011;5274;51.992;8.518;2023-12-29T04:05:52;6.15;;;5.70;;
10452;SDS011;5274;51.992;8.518;2023-12-29T04:08:18;7.00;;;5.53;;
10452;SDS011;5274;51.992;8.518;2023-12-29T04:10:44;6.18;;;5.68;;
10452;SDS011;5274;51.992;8.518;2023-12-29T04:13:10;6.50;;;5.93;;
10452;SDS011;5274;51.992;8.518;2023-12-29T04:15:36;8.55;;;5.38;;
10452;SDS011;5274;51.992;8.518;2023-12-29T04:18:02;8.60;;;6.05;;
10452;SDS011;5274;51.992;8.518;2023-12-29T04:20:28;5.53;;;5.13;;
10452;SDS011;5274;51.992;8.518;2023-12-29T04:22:54;6.00;;;5.38;;
10452;SDS011;5274;51.992;8.518;2023-12-29T04:25:20;5.78;;;5.28;;
10452;SDS011;5274;51.992;8.518;2023-12-29T04:27:46;6.40;;;5.97;;
10452;SDS011;5274;51.992;8.518;2023-12-29T04:30:12;8.05;;;6.18;;
10452;SDS011;5274;51.992;8.518;2023-12-29T04:32:38;7.20;;;6.03;;
10452;SDS011;5274;51.992;8.518;2023-12-29T04:35:04;7.40;;;5.50;;
10452;SDS011;5274;51.992;8.518;2023-12-29T04:37:30;8.15;;;5.85;;
10452;SDS011;5274;51.992;8.518;2023-12-29T04:39:56;8.15;;;5.80;;
10452;SDS011;5274;51.992;8.518;2023-12-29T04:42:22;6.25;;;5.85;;
10452;SDS011;5274;51.992;8.518;2023-12-29T04:44:47;6.20;;;5.65;;
10452;SDS011;5274;51.992;8.518;2023-12-29T04:47:13;8.23;;;6.20;;
10452;SDS011;5274;51.992;8.518;2023-12-29T04:49:39;6.85;;;6.13;;
10452;SDS011;5274;51.992;8.518;2023-12-29T04:52:05;9.68;;;5.70;;
10452;SDS011;5274;51.992;8.518;2023-12-29T04:54:31;8.90;;;6.00;;
10452;SDS011;5274;51.992;8.518;2023-12-29T04:56:57;10.35;;;6.22;;
10452;SDS011;5274;51.992;8.518;2023-12-29T04:59:23;6.38;;;5.85;;
10452;SDS011;5274;51.992;8.518;2023-12-29T05:01:49;6.50;;;5.72;;
10452;SDS011;5274;51.992;8.518;2023-12-29T05:04:15;8.77;;;6.07;;
10452;SDS011;5274;51.992;8.518;2023-12-29T05:06:41;6.90;;;6.18;;
10452;SDS011;5274;51.992;8.518;2023-12-29T05:09:07;8.05;;;5.93;;
10452;SDS011;5274;51.992;8.518;2023-12-29T05:11:33;8.90;;;6.07;;
10452;SDS011;5274;51.992;8.518;2023-12-29T05:13:59;6.07;;;5.68;;
10452;SDS011;5274;51.992;8.518;2023-12-29T05:16:25;7.20;;;5.95;;
10452;SDS011;5274;51.992;8.518;2023-12-29T05:18:51;7.20;;;5.97;;
10452;SDS011;5274;51.992;8.518;2023-12-29T05:21:17;8.40;;;5.90;;
10452;SDS011;5274;51.992;8.518;2023-12-29T05:23:44;8.07;;;6.43;;
10452;SDS011;5274;51.992;8.518;2023-12-29T05:26:16;8.15;;;6.40;;
10452;SDS011;5274;51.992;8.518;2023-12-29T05:28:42;9.13;;;6.18;;
10452;SDS011;5274;51.992;8.518;2023-12-29T05:31:08;7.93;;;5.90;;
10452;SDS011;5274;51.992;8.518;2023-12-29T05:33:34;8.68;;;5.82;;
10452;SDS011;5274;51.992;8.518;2023-12-29T05:36:07;9.85;;;6.00;;
10452;SDS011;5274;51.992;8.518;2023-12-29T05:38:33;6.63;;;5.65;;
10452;SDS011;5274;51.992;8.518;2023-12-29T05:41:00;7.90;;;5.80;;
10452;SDS011;5274;51.992;8.518;2023-12-29T05:43:27;6.25;;;5.72;;
10452;SDS011;5274;51.992;8.518;2023-12-29T05:45:53;7.43;;;6.03;;
10452;SDS011;5274;51.992;8.518;2023-12-29T05:48:19;6.70;;;5.90;;
10452;SDS011;5274;51.992;8.518;2023-12-29T05:50:45;12.90;;;5.72;;
10452;SDS011;5274;51.992;8.518;2023-12-29T05:53:11;8.05;;;5.70;;
10452;SDS011;5274;51.992;8.518;2023-12-29T05:55:38;7.57;;;5.93;;
10452;SDS011;5274;51.992;8.518;2023-12-29T05:58:04;11.07;;;5.90;;
10452;SDS011;5274;51.992;8.518;2023-12-29T06:00:30;6.18;;;5.57;;
10452;SDS011;5274;51.992;8.518;2023-12-29T06:02:56;9.73;;;5.63;;
10452;SDS011;5274;51.992;8.518;2023-12-29T06:05:22;8.63;;;5.90;;
10452;SDS011;5274;51.992;8.518;2023-12-29T06:07:48;8.90;;;5.90;;
10452;SDS011;5274;51.992;8.518;2023-12-29T06:10:14;6.70;;;5.40;;
10452;SDS011;5274;51.992;8.518;2023-12-29T06:12:40;10.40;;;5.50;;
10452;SDS011;5274;51.992;8.518;2023-12-29T06:15:06;9.90;;;5.53;;
10452;SDS011;5274;51.992;8.518;2023-12-29T06:17:32;6.45;;;5.78;;
10452;SDS011;5274;51.992;8.518;2023-12-29T06:20:00;10.35;;;5.30;;
10452;SDS011;5274;51.992;8.518;2023-12-29T06:22:27;12.48;;;6.40;;
10452;SDS011;5274;51.992;8.518;2023-12-29T06:24:53;6.43;;;5.70;;
10452;SDS011;5274;51.992;8.518;2023-12-29T06:27:18;6.30;;;5.70;;
10452;SDS011;5274;51.992;8.518;2023-12-29T06:29:44;6.20;;;5.70;;
10452;SDS011;5274;51.992;8.518;2023-12-29T06:32:10;6.80;;;6.20;;
10452;SDS011;5274;51.992;8.518;2023-12-29T06:34:36;7.53;;;6.07;;
10452;SDS011;5274;51.992;8.518;2023-12-29T06:37:02;10.13;;;6.10;;
10452;SDS011;5274;51.992;8.518;2023-12-29T06:39:28;8.15;;;6.25;;
10452;SDS011;5274;51.992;8.518;2023-12-29T06:41:54;8.13;;;6.30;;
10452;SDS011;5274;51.992;8.518;2023-12-29T06:44:20;6.75;;;5.70;;
10452;SDS011;5274;51.992;8.518;2023-12-29T06:46:46;10.13;;;6.53;;
10452;SDS011;5274;51.992;8.518;2023-12-29T06:49:12;7.88;;;6.00;;
10452;SDS011;5274;51.992;8.518;2023-12-29T06:51:38;6.97;;;6.20;;
10452;SDS011;5274;51.992;8.518;2023-12-29T06:54:05;9.07;;;5.70;;
10452;SDS011;5274;51.992;8.518;2023-12-29T06:56:31;6.72;;;6.03;;
10452;SDS011;5274;51.992;8.518;2023-12-29T06:58:57;7.22;;;5.93;;
10452;SDS011;5274;51.992;8.518;2023-12-29T07:01:23;7.50;;;5.60;;
10452;SDS011;5274;51.992;8.518;2023-12-29T07:03:49;6.80;;;5.93;;
10452;SDS011;5274;51.992;8.518;2023-12-29T07:06:15;6.43;;;5.93;;
10452;SDS011;5274;51.992;8.518;2023-12-29T07:08:41;7.22;;;6.63;;
10452;SDS011;5274;51.992;8.518;2023-12-29T07:11:10;9.80;;;6.80;;
10452;SDS011;5274;51.992;8.518;2023-12-29T07:13:37;10.55;;;5.93;;
10452;SDS011;5274;51.992;8.518;2023-12-29T07:16:03;7.68;;;6.00;;
10452;SDS011;5274;51.992;8.518;2023-12-29T07:18:29;7.78;;;5.97;;
10452;SDS011;5274;51.992;8.518;2023-12-29T07:20:55;10.50;;;6.30;;
10452;SDS011;5274;51.992;8.518;2023-12-29T07:23:21;8.88;;;6.38;;
10452;SDS011;5274;51.992;8.518;2023-12-29T07:25:47;7.18;;;5.72;;
10452;SDS011;5274;51.992;8.518;2023-12-29T07:28:13;6.70;;;5.97;;
10452;SDS011;5274;51.992;8.518;2023-12-29T07:30:39;12.40;;;6.38;;
10452;SDS011;5274;51.992;8.518;2023-12-29T07:33:05;7.82;;;6.03;;
10452;SDS011;5274;51.992;8.518;2023-12-29T07:35:31;9.18;;;6.15;;
10452;SDS011;5274;51.992;8.518;2023-12-29T07:37:57;12.10;;;6.30;;
10452;SDS011;5274;51.992;8.518;2023-12-29T07:40:23;8.55;;;5.85;;
10452;SDS011;5274;51.992;8.518;2023-12-29T07:42:49;9.75;;;5.93;;
10452;SDS011;5274;51.992;8.518;2023-12-29T07:45:15;7.72;;;5.57;;
10452;SDS011;5274;51.992;8.518;2023-12-29T07:47:41;8.40;;;6.28;;
10452;SDS011;5274;51.992;8.518;2023-12-29T07:50:07;8.65;;;6.18;;
10452;SDS011;5274;51.992;8.518;2023-12-29T07:52:33;7.38;;;6.35;;
10452;SDS011;5274;51.992;8.518;2023-12-29T07:54:59;10.77;;;6.50;;
10452;SDS011;5274;51.992;8.518;2023-12-29T07:57:25;7.85;;;5.93;;
10452;SDS011;5274;51.992;8.518;2023-12-29T07:59:51;6.95;;;5.40;;
10452;SDS011;5274;51.992;8.518;2023-12-29T08:02:17;7.35;;;5.90;;
10452;SDS011;5274;51.992;8.518;2023-12-29T08:04:43;5.97;;;5.45;;
10452;SDS011;5274;51.992;8.518;2023-12-29T08:07:11;6.30;;;5.70;;
10452;SDS011;5274;51.992;8.518;2023-12-29T08:09:37;7.47;;;5.65;;
10452;SDS011;5274;51.992;8.518;2023-12-29T08:12:03;10.98;;;5.32;;
10452;SDS011;5274;51.992;8.518;2023-12-29T08:14:29;7.55;;;5.93;;
10452;SDS011;5274;51.992;8.518;2023-12-29T08:16:55;6.07;;;5.47;;
10452;SDS011;5274;51.992;8.518;2023-12-29T08:19:22;8.43;;;6.35;;
10452;SDS011;5274;51.992;8.518;2023-12-29T08:21:48;7.70;;;5.90;;
10452;SDS011;5274;51.992;8.518;2023-12-29T08:24:14;9.00;;;5.57;;
10452;SDS011;5274;51.992;8.518;2023-12-29T08:26:46;8.00;;;5.85;;
10452;SDS011;5274;51.992;8.518;2023-12-29T08:29:13;9.38;;;6.10;;
10452;SDS011;5274;51.992;8.518;2023-12-29T08:31:39;11.57;;;6.15;;
10452;SDS011;5274;51.992;8.518;2023-12-29T08:34:05;10.23;;;6.22;;
10452;SDS011;5274;51.992;8.518;2023-12-29T08:36:31;10.65;;;5.72;;
10452;SDS011;5274;51.992;8.518;2023-12-29T08:38:57;6.70;;;5.63;;
10452;SDS011;5274;51.992;8.518;2023-12-29T08:41:23;6.95;;;5.30;;
10452;SDS011;5274;51.992;8.518;2023-12-29T08:43:49;8.82;;;5.43;;
10452;SDS011;5274;51.992;8.518;2023-12-29T08:46:15;7.50;;;5.47;;
10452;SDS011;5274;51.992;8.518;2023-12-29T08:48:41;6.90;;;5.32;;
10452;SDS011;5274;51.992;8.518;2023-12-29T08:51:07;7.85;;;5.53;;
10452;SDS011;5274;51.992;8.518;2023-12-29T08:53:33;5.57;;;5.18;;
10452;SDS011;5274;51.992;8.518;2023-12-29T08:56:01;6.45;;;5.72;;
10452;SDS011;5274;51.992;8.518;2023-12-29T08:58:26;6.57;;;5.95;;
10452;SDS011;5274;51.992;8.518;2023-12-29T09:00:52;7.10;;;6.20;;
10452;SDS011;5274;51.992;8.518;2023-12-29T09:03:19;7.28;;;6.10;;
10452;SDS011;5274;51.992;8.518;2023-12-29T09:05:45;7.80;;;6.40;;
10452;SDS011;5274;51.992;8.518;2023-12-29T09:08:11;6.80;;;6.20;;
10452;SDS011;5274;51.992;8.518;2023-12-29T09:10:37;6.93;;;6.30;;
10452;SDS011;5274;51.992;8.518;2023-12-29T09:13:03;6.60;;;6.13;;
10452;SDS011;5274;51.992;8.518;2023-12-29T09:15:29;8.50;;;6.30;;
10452;SDS011;5274;51.992;8.518;2023-12-29T09:17:55;8.38;;;6.53;;
10452;SDS011;5274;51.992;8.518;2023-12-29T09:20:21;8.27;;;6.22;;
10452;SDS011;5274;51.992;8.518;2023-12-29T09:22:47;8.50;;;6.80;;
10452;SDS011;5274;51.992;8.518;2023-12-29T09:25:13;10.95;;;6.70;;
10452;SDS011;5274;51.992;8.518;2023-12-29T09:27:39;6.97;;;6.38;;
10452;SDS011;5274;51.992;8.518;2023-12-29T09:30:05;7.43;;;6.40;;
10452;SDS011;5274;51.992;8.518;2023-12-29T09:32:31;10.48;;;6.75;;
10452;SDS011;5274;51.992;8.518;2023-12-29T09:34:57;6.90;;;6.40;;
10452;SDS011;5274;51.992;8.518;2023-12-29T09:37:23;7.15;;;6.30;;
10452;SDS011;5274;51.992;8.518;2023-12-29T09:39:49;6.85;;;6.32;;
10452;SDS011;5274;51.992;8.518;2023-12-29T09:42:21;6.90;;;6.30;;
10452;SDS011;5274;51.992;8.518;2023-12-29T09:44:51;6.78;;;6.18;;
10452;SDS011;5274;51.992;8.518;2023-12-29T09:47:23;6.60;;;5.78;;
10452;SDS011;5274;51.992;8.518;2023-12-29T09:49:51;6.75;;;5.30;;
10452;SDS011;5274;51.992;8.518;2023-12-29T09:52:18;6.78;;;5.70;;
10452;SDS011;5274;51.992;8.518;2023-12-29T09:54:46;7.03;;;6.07;;
10452;SDS011;5274;51.992;8.518;2023-12-29T09:57:12;6.80;;;6.40;;
10452;SDS011;5274;51.992;8.518;2023-12-29T09:59:38;7.03;;;6.43;;
10452;SDS011;5274;51.992;8.518;2023-12-29T10:02:11;7.10;;;5.80;;
10452;SDS011;5274;51.992;8.518;2023-12-29T10:04:38;6.45;;;5.90;;
10452;SDS011;5274;51.992;8.518;2023-12-29T10:07:04;6.40;;;5.90;;
10452;SDS011;5274;51.992;8.518;2023-12-29T10:09:32;6.00;;;5.63;;
10452;SDS011;5274;51.992;8.518;2023-12-29T10:11:59;8.77;;;5.97;;
10452;SDS011;5274;51.992;8.518;2023-12-29T10:17:06;5.50;;;5.13;;
10452;SDS011;5274;51.992;8.518;2023-12-29T10:22:11;5.13;;;4.72;;
10452;SDS011;5274;51.992;8.518;2023-12-29T10:24:41;8.40;;;5.25;;
10452;SDS011;5274;51.992;8.518;2023-12-29T10:27:10;5.30;;;4.80;;
10452;SDS011;5274;51.992;8.518;2023-12-29T10:29:36;6.90;;;5.10;;
10452;SDS011;5274;51.992;8.518;2023-12-29T10:32:02;5.70;;;5.13;;
10452;SDS011;5274;51.992;8.518;2023-12-29T10:34:28;7.07;;;5.45;;
10452;SDS011;5274;51.992;8.518;2023-12-29T10:36:55;7.38;;;5.00;;
10452;SDS011;5274;51.992;8.518;2023-12-29T10:39:21;5.43;;;5.07;;
10452;SDS011;5274;51.992;8.518;2023-12-29T10:41:48;5.63;;;5.18;;
10452;SDS011;5274;51.992;8.518;2023-12-29T10:44:15;5.18;;;4.78;;
10452;SDS011;5274;51.992;8.518;2023-12-29T10:46:42;5.07;;;4.68;;
10452;SDS011;5274;51.992;8.518;2023-12-29T10:51:34;5.13;;;4.68;;
10452;SDS011;5274;51.992;8.518;2023-12-29T10:54:00;5.38;;;4.97;;
10452;SDS011;5274;51.992;8.518;2023-12-29T10:56:26;5.40;;;5.10;;
10452;SDS011;5274;51.992;8.518;2023-12-29T10:58:57;4.40;;;4.25;;
10452;SDS011;5274;51.992;8.518;2023-12-29T11:01:24;5.00;;;4.70;;
10452;SDS011;5274;51.992;8.518;2023-12-29T11:03:57;4.88;;;4.60;;
10452;SDS011;5274;51.992;8.518;2023-12-29T11:06:23;6.65;;;4.70;;
10452;SDS011;5274;51.992;8.518;2023-12-29T11:08:49;5.25;;;4.78;;
10452;SDS011;5274;51.992;8.518;2023-12-29T11:11:15;4.80;;;4.60;;
10452;SDS011;5274;51.992;8.518;2023-12-29T11:13:41;4.78;;;4.40;;
10452;SDS011;5274;51.992;8.518;2023-12-29T11:16:07;5.00;;;4.50;;
10452;SDS011;5274;51.992;8.518;2023-12-29T11:18:33;4.63;;;4.32;;
10452;SDS011;5274;51.992;8.518;2023-12-29T11:21:00;4.88;;;4.45;;
10452;SDS011;5274;51.992;8.518;2023-12-29T11:23:27;5.03;;;4.60;;
10452;SDS011;5274;51.992;8.518;2023-12-29T11:25:53;4.70;;;4.50;;
10452;SDS011;5274;51.992;8.518;2023-12-29T11:28:20;4.97;;;4.78;;
10452;SDS011;5274;51.992;8.518;2023-12-29T11:30:46;5.20;;;4.70;;
10452;SDS011;5274;51.992;8.518;2023-12-29T11:33:14;4.60;;;4.30;;
10452;SDS011;5274;51.992;8.518;2023-12-29T11:38:18;4.88;;;4.68;;
10452;SDS011;5274;51.992;8.518;2023-12-29T11:41:01;5.10;;;4.70;;
10452;SDS011;5274;51.992;8.518;2023-12-29T11:43:29;4.97;;;4.70;;
10452;SDS011;5274;51.992;8.518;2023-12-29T11:45:55;4.75;;;4.55;;
10452;SDS011;5274;51.992;8.518;2023-12-29T11:53:51;4.47;;;4.22;;
10452;SDS011;5274;51.992;8.518;2023-12-29T11:56:16;4.95;;;4.75;;
10452;SDS011;5274;51.992;8.518;2023-12-29T11:58:42;6.50;;;6.20;;
10452;SDS011;5274;51.992;8.518;2023-12-29T12:01:08;6.88;;;6.57;;
10452;SDS011;5274;51.992;8.518;2023-12-29T12:03:34;6.40;;;6.00;;
10452;SDS011;5274;51.992;8.518;2023-12-29T12:06:01;6.00;;;5.70;;
10452;SDS011;5274;51.992;8.518;2023-12-29T12:10:54;5.60;;;5.40;;
10452;SDS011;5274;51.992;8.518;2023-12-29T12:16:05;5.72;;;5.43;;
10452;SDS011;5274;51.992;8.518;2023-12-29T12:18:31;5.20;;;4.85;;
10452;SDS011;5274;51.992;8.518;2023-12-29T12:20:57;5.35;;;4.95;;
10452;SDS011;5274;51.992;8.518;2023-12-29T12:23:25;5.30;;;5.00;;
10452;SDS011;5274;51.992;8.518;2023-12-29T12:25:56;5.40;;;5.10;;
10452;SDS011;5274;51.992;8.518;2023-12-29T12:28:24;5.28;;;4.95;;
10452;SDS011;5274;51.992;8.518;2023-12-29T12:30:50;5.50;;;5.10;;
10452;SDS011;5274;51.992;8.518;2023-12-29T12:33:16;5.25;;;4.97;;
10452;SDS011;5274;51.992;8.518;2023-12-29T12:35:42;5.63;;;5.20;;
10452;SDS011;5274;51.992;8.518;2023-12-29T12:38:11;5.05;;;4.72;;
10452;SDS011;5274;51.992;8.518;2023-12-29T12:40:37;5.78;;;5.38;;
10452;SDS011;5274;51.992;8.518;2023-12-29T12:43:03;5.07;;;4.85;;
10452;SDS011;5274;51.992;8.518;2023-12-29T12:45:32;5.20;;;5.00;;
10452;SDS011;5274;51.992;8.518;2023-12-29T12:48:03;5.32;;;4.93;;
10452;SDS011;5274;51.992;8.518;2023-12-29T12:50:34;5.68;;;5.18;;
10452;SDS011;5274;51.992;8.518;2023-12-29T12:53:00;6.18;;;5.45;;
10452;SDS011;5274;51.992;8.518;2023-12-29T12:55:33;5.40;;;5.10;;
10452;SDS011;5274;51.992;8.518;2023-12-29T12:58:00;5.40;;;5.18;;
10452;SDS011;5274;51.992;8.518;2023-12-29T13:00:26;5.50;;;5.20;;
10452;SDS011;5274;51.992;8.518;2023-12-29T13:02:52;5.20;;;5.00;;
10452;SDS011;5274;51.992;8.518;2023-12-29T13:05:18;5.60;;;5.20;;
10452;SDS011;5274;51.992;8.518;2023-12-29T13:07:44;5.80;;;5.03;;
10452;SDS011;5274;51.992;8.518;2023-12-29T13:10:10;5.60;;;5.25;;
10452;SDS011;5274;51.992;8.518;2023-12-29T13:12:36;5.60;;;5.30;;
10452;SDS011;5274;51.992;8.518;2023-12-29T13:15:05;5.35;;;4.95;;
10452;SDS011;5274;51.992;8.518;2023-12-29T13:17:33;5.40;;;4.95;;
10452;SDS011;5274;51.992;8.518;2023-12-29T13:19:59;5.80;;;5.05;;
10452;SDS011;5274;51.992;8.518;2023-12-29T13:22:25;5.63;;;5.10;;
10452;SDS011;5274;51.992;8.518;2023-12-29T13:24:55;5.72;;;5.43;;
10452;SDS011;5274;51.992;8.518;2023-12-29T13:27:21;6.00;;;5.35;;
10452;SDS011;5274;51.992;8.518;2023-12-29T13:29:47;6.10;;;5.57;;
10452;SDS011;5274;51.992;8.518;2023-12-29T13:32:17;5.93;;;5.50;;
10452;SDS011;5274;51.992;8.518;2023-12-29T13:39:58;5.57;;;5.07;;
10452;SDS011;5274;51.992;8.518;2023-12-29T13:42:25;5.60;;;5.30;;
10452;SDS011;5274;51.992;8.518;2023-12-29T13:44:53;6.13;;;5.38;;
10452;SDS011;5274;51.992;8.518;2023-12-29T13:47:20;5.80;;;5.50;;
10452;SDS011;5274;51.992;8.518;2023-12-29T13:49:46;6.50;;;5.80;;
10452;SDS011;5274;51.992;8.518;2023-12-29T13:52:13;12.77;;;8.68;;
10452;SDS011;5274;51.992;8.518;2023-12-29T13:54:41;10.80;;;7.10;;
10452;SDS011;5274;51.992;8.518;2023-12-29T13:57:10;10.93;;;7.57;;
10452;SDS011;5274;51.992;8.518;2023-12-29T13:59:36;8.30;;;6.45;;
10452;SDS011;5274;51.992;8.518;2023-12-29T14:02:23;7.93;;;6.93;;
10452;SDS011;5274;51.992;8.518;2023-12-29T14:05:05;5.55;;;5.25;;
10452;SDS011;5274;51.992;8.518;2023-12-29T14:07:32;6.38;;;5.38;;
10452;SDS011;5274;51.992;8.518;2023-12-29T14:09:58;6.53;;;5.93;;
10452;SDS011;5274;51.992;8.518;2023-12-29T14:12:24;6.22;;;5.63;;
10452;SDS011;5274;51.992;8.518;2023-12-29T14:14:51;5.53;;;5.07;;
10452;SDS011;5274;51.992;8.518;2023-12-29T14:17:21;5.70;;;5.20;;
10452;SDS011;5274;51.992;8.518;2023-12-29T14:19:47;5.20;;;4.80;;
10452;SDS011;5274;51.992;8.518;2023-12-29T14:22:20;6.32;;;5.75;;
10452;SDS011;5274;51.992;8.518;2023-12-29T14:24:58;5.70;;;5.30;;
10452;SDS011;5274;51.992;8.518;2023-12-29T14:27:25;7.05;;;5.75;;
10452;SDS011;5274;51.992;8.518;2023-12-29T14:29:51;5.28;;;4.93;;
10452;SDS011;5274;51.992;8.518;2023-12-29T14:32:17;5.85;;;5.28;;
10452;SDS011;5274;51.992;8.518;2023-12-29T14:34:42;8.57;;;6.68;;
10452;SDS011;5274;51.992;8.518;2023-12-29T14:37:15;7.57;;;5.70;;
10452;SDS011;5274;51.992;8.518;2023-12-29T14:39:46;5.65;;;5.10;;
10452;SDS011;5274;51.992;8.518;2023-12-29T14:42:12;6.05;;;5.45;;
10452;SDS011;5274;51.992;8.518;2023-12-29T14:44:38;6.45;;;5.93;;
10452;SDS011;5274;51.992;8.518;2023-12-29T14:47:04;5.53;;;5.13;;
10452;SDS011;5274;51.992;8.518;2023-12-29T14:49:30;6.20;;;5.60;;
10452;SDS011;5274;51.992;8.518;2023-12-29T14:51:56;5.72;;;5.20;;
10452;SDS011;5274;51.992;8.518;2023-12-29T14:54:22;5.13;;;4.70;;
10452;SDS011;5274;51.992;8.518;2023-12-29T14:56:48;4.75;;;4.35;;
10452;SDS011;5274;51.992;8.518;2023-12-29T14:59:14;4.90;;;4.60;;
10452;SDS011;5274;51.992;8.518;2023-12-29T15:01:40;4.78;;;4.57;;
10452;SDS011;5274;51.992;8.518;2023-12-29T15:04:06;4.80;;;4.50;;
10452;SDS011;5274;51.992;8.518;2023-12-29T15:06:32;4.30;;;4.05;;
10452;SDS011;5274;51.992;8.518;2023-12-29T15:08:58;4.88;;;4.47;;
10452;SDS011;5274;51.992;8.518;2023-12-29T15:11:23;4.70;;;4.50;;
10452;SDS011;5274;51.992;8.518;2023-12-29T15:13:49;5.10;;;4.70;;
10452;SDS011;5274;51.992;8.518;2023-12-29T15:16:15;4.97;;;4.78;;
10452;SDS011;5274;51.992;8.518;2023-12-29T15:18:41;5.18;;;4.88;;
10452;SDS011;5274;51.992;8.518;2023-12-29T15:21:07;7.15;;;5.15;;
10452;SDS011;5274;51.992;8.518;2023-12-29T15:23:33;6.78;;;5.40;;
10452;SDS011;5274;51.992;8.518;2023-12-29T15:25:59;5.15;;;4.70;;